sensor_id;sensor_type;location;lat;lon;timestamp;pressure;altitude;pressure_sealevel;temperature;humidity
83104;BME280;72975;48.134;11.630;2023-11-18T00:00:00;96198.59;;;4.27;85.82
83104;BME280;72975;48.134;11.630;2023-11-18T00:02:30;96198.94;;;4.26;85.34
83104;BME280;72975;48.134;11.630;2023-11-18T00:05:00;96193.50;;;4.22;85.96
83104;BME280;72975;48.134;11.630;2023-11-18T00:07:27;96204.28;;;4.26;85.90
83104;BME280;72975;48.134;11.630;2023-11-18T00:09:55;96214.13;;;4.22;86.25
83104;BME280;72975;48.134;11.630;2023-11-18T00:12:23;96198.09;;;4.22;86.03
83104;BME280;72975;48.134;11.630;2023-11-18T00:14:51;96197.66;;;4.20;85.67
83104;BME280;72975;48.134;11.630;2023-11-18T00:17:18;96206.03;;;4.18;85.47
83104;BME280;72975;48.134;11.630;2023-11-18T00:19:47;96208.72;;;4.18;85.90
83104;BME280;72975;48.134;11.630;2023-11-18T00:22:14;96203.00;;;4.20;85.63
83104;BME280;72975;48.134;11.630;2023-11-18T00:24:41;96203.38;;;4.18;86.26
83104;BME280;72975;48.134;11.630;2023-11-18T00:27:08;96210.25;;;4.19;86.11
83104;BME280;72975;48.134;11.630;2023-11-18T00:29:35;96202.66;;;4.21;85.42
83104;BME280;72975;48.134;11.630;2023-11-18T00:32:02;96208.44;;;4.23;85.74
83104;BME280;72975;48.134;11.630;2023-11-18T00:34:30;96201.78;;;4.17;85.57
83104;BME280;72975;48.134;11.630;2023-11-18T00:36:57;96206.03;;;4.18;85.84
83104;BME280;72975;48.134;11.630;2023-11-18T00:39:25;96215.50;;;4.16;85.07
83104;BME280;72975;48.134;11.630;2023-11-18T00:41:52;96211.72;;;4.17;84.46
83104;BME280;72975;48.134;11.630;2023-11-18T00:44:19;96220.84;;;4.16;84.28
83104;BME280;72975;48.134;11.630;2023-11-18T00:46:46;96218.63;;;4.18;84.60
83104;BME280;72975;48.134;11.630;2023-11-18T00:49:13;96231.88;;;4.14;84.01
83104;BME280;72975;48.134;11.630;2023-11-18T00:51:40;96217.34;;;4.12;84.58
83104;BME280;72975;48.134;11.630;2023-11-18T00:54:10;96210.81;;;4.09;84.91
83104;BME280;72975;48.134;11.630;2023-11-18T00:56:39;96221.16;;;4.11;84.49
83104;BME280;72975;48.134;11.630;2023-11-18T00:59:06;96210.38;;;4.07;84.81
83104;BME280;72975;48.134;11.630;2023-11-18T01:01:34;96217.34;;;4.12;83.96
83104;BME280;72975;48.134;11.630;2023-11-18T01:04:01;96224.09;;;4.06;84.44
83104;BME280;72975;48.134;11.630;2023-11-18T01:06:29;96218.31;;;4.04;84.84
83104;BME280;72975;48.134;11.630;2023-11-18T01:08:56;96223.72;;;4.07;84.33
83104;BME280;72975;48.134;11.630;2023-11-18T01:11:23;96226.31;;;4.04;84.48
83104;BME280;72975;48.134;11.630;2023-11-18T01:13:51;96226.75;;;4.06;84.95
83104;BME280;72975;48.134;11.630;2023-11-18T01:16:18;96227.84;;;4.05;84.55
83104;BME280;72975;48.134;11.630;2023-11-18T01:18:46;96228.22;;;4.03;84.59
83104;BME280;72975;48.134;11.630;2023-11-18T01:21:13;96232.78;;;4.03;84.66
83104;BME280;72975;48.134;11.630;2023-11-18T01:23:40;96232.50;;;4.08;84.33
83104;BME280;72975;48.134;11.630;2023-11-18T01:26:09;96234.50;;;4.11;84.60
83104;BME280;72975;48.134;11.630;2023-11-18T01:28:36;96234.34;;;4.04;84.52
83104;BME280;72975;48.134;11.630;2023-11-18T01:31:05;96239.69;;;4.04;84.08
83104;BME280;72975;48.134;11.630;2023-11-18T01:33:40;96239.31;;;4.05;83.91
83104;BME280;72975;48.134;11.630;2023-11-18T01:36:08;96246.16;;;4.03;83.82
83104;BME280;72975;48.134;11.630;2023-11-18T01:38:37;96242.34;;;4.04;84.00
83104;BME280;72975;48.134;11.630;2023-11-18T01:41:06;96242.78;;;4.06;83.97
83104;BME280;72975;48.134;11.630;2023-11-18T01:43:33;96247.25;;;4.02;84.32
83104;BME280;72975;48.134;11.630;2023-11-18T01:46:09;96239.41;;;4.09;83.67
83104;BME280;72975;48.134;11.630;2023-11-18T01:48:38;96253.13;;;4.07;84.22
83104;BME280;72975;48.134;11.630;2023-11-18T01:51:07;96244.31;;;4.07;84.47
83104;BME280;72975;48.134;11.630;2023-11-18T01:53:37;96253.47;;;4.06;83.78
83104;BME280;72975;48.134;11.630;2023-11-18T01:56:08;96253.47;;;4.06;83.97
83104;BME280;72975;48.134;11.630;2023-11-18T01:58:36;96256.97;;;4.10;84.34
83104;BME280;72975;48.134;11.630;2023-11-18T02:01:04;96257.69;;;4.07;84.10
83104;BME280;72975;48.134;11.630;2023-11-18T02:03:35;96261.88;;;4.08;84.07
83104;BME280;72975;48.134;11.630;2023-11-18T02:06:04;96256.50;;;4.04;84.32
83104;BME280;72975;48.134;11.630;2023-11-18T02:08:33;96263.47;;;4.09;83.82
83104;BME280;72975;48.134;11.630;2023-11-18T02:11:14;96255.34;;;4.05;83.97
83104;BME280;72975;48.134;11.630;2023-11-18T02:13:47;96250.38;;;4.04;84.18
83104;BME280;72975;48.134;11.630;2023-11-18T02:16:16;96255.88;;;4.11;84.60
83104;BME280;72975;48.134;11.630;2023-11-18T02:18:43;96262.06;;;4.15;84.16
83104;BME280;72975;48.134;11.630;2023-11-18T02:21:12;96261.47;;;4.06;84.47
83104;BME280;72975;48.134;11.630;2023-11-18T02:23:41;96262.59;;;4.05;84.52
83104;BME280;72975;48.134;11.630;2023-11-18T02:26:10;96261.88;;;4.08;83.71
83104;BME280;72975;48.134;11.630;2023-11-18T02:28:37;96265.09;;;4.13;84.02
83104;BME280;72975;48.134;11.630;2023-11-18T02:31:26;96262.06;;;4.15;84.02
83104;BME280;72975;48.134;11.630;2023-11-18T02:34:14;96255.00;;;4.07;84.12
83104;BME280;72975;48.134;11.630;2023-11-18T02:36:48;96269.63;;;4.13;84.39
83104;BME280;72975;48.134;11.630;2023-11-18T02:39:43;96255.78;;;4.07;84.78
83104;BME280;72975;48.134;11.630;2023-11-18T02:42:13;96261.63;;;4.13;83.65
83104;BME280;72975;48.134;11.630;2023-11-18T02:44:40;96257.41;;;4.12;84.37
83104;BME280;72975;48.134;11.630;2023-11-18T02:47:08;96259.66;;;4.10;83.57
83104;BME280;72975;48.134;11.630;2023-11-18T02:49:37;96266.72;;;4.18;84.34
83104;BME280;72975;48.134;11.630;2023-11-18T02:52:06;96257.41;;;4.12;84.51
83104;BME280;72975;48.134;11.630;2023-11-18T02:54:33;96261.38;;;4.18;84.22
83104;BME280;72975;48.134;11.630;2023-11-18T02:57:00;96257.16;;;4.17;83.70
83104;BME280;72975;48.134;11.630;2023-11-18T02:59:26;96262.31;;;4.10;83.73
83104;BME280;72975;48.134;11.630;2023-11-18T03:01:57;96264.66;;;4.11;83.92
83104;BME280;72975;48.134;11.630;2023-11-18T03:04:24;96269.91;;;4.08;84.36
83104;BME280;72975;48.134;11.630;2023-11-18T03:06:51;96269.22;;;4.11;84.47
83104;BME280;72975;48.134;11.630;2023-11-18T03:09:17;96267.41;;;4.15;84.04
83104;BME280;72975;48.134;11.630;2023-11-18T03:11:46;96260.44;;;4.10;84.18
83104;BME280;72975;48.134;11.630;2023-11-18T03:14:13;96272.13;;;4.21;84.14
83104;BME280;72975;48.134;11.630;2023-11-18T03:16:40;96266.28;;;4.16;84.04
83104;BME280;72975;48.134;11.630;2023-11-18T03:19:07;96282.38;;;4.19;83.75
83104;BME280;72975;48.134;11.630;2023-11-18T03:21:35;96275.84;;;4.17;84.25
83104;BME280;72975;48.134;11.630;2023-11-18T03:24:03;96282.38;;;4.19;83.51
83104;BME280;72975;48.134;11.630;2023-11-18T03:26:30;96281.91;;;4.14;84.51
83104;BME280;72975;48.134;11.630;2023-11-18T03:28:59;96282.75;;;4.18;83.73
83104;BME280;72975;48.134;11.630;2023-11-18T03:31:26;96283.25;;;4.23;84.38
83104;BME280;72975;48.134;11.630;2023-11-18T03:33:53;96287.66;;;4.16;84.36
83104;BME280;72975;48.134;11.630;2023-11-18T03:36:20;96292.06;;;4.08;84.42
83104;BME280;72975;48.134;11.630;2023-11-18T03:38:47;96297.94;;;4.14;84.33
83104;BME280;72975;48.134;11.630;2023-11-18T03:41:16;96290.19;;;4.09;83.99
83104;BME280;72975;48.134;11.630;2023-11-18T03:43:44;96289.03;;;4.10;84.76
83104;BME280;72975;48.134;11.630;2023-11-18T03:46:11;96288.88;;;4.18;84.35
83104;BME280;72975;48.134;11.630;2023-11-18T03:48:38;96292.59;;;4.14;84.39
83104;BME280;72975;48.134;11.630;2023-11-18T03:51:05;96299.47;;;4.15;84.17
83104;BME280;72975;48.134;11.630;2023-11-18T03:53:32;96300.59;;;4.14;84.38
83104;BME280;72975;48.134;11.630;2023-11-18T03:56:01;96299.47;;;4.15;84.62
83104;BME280;72975;48.134;11.630;2023-11-18T03:58:29;96295.66;;;4.16;83.86
83104;BME280;72975;48.134;11.630;2023-11-18T04:00:56;96300.00;;;4.20;84.15
83104;BME280;72975;48.134;11.630;2023-11-18T04:03:24;96310.16;;;4.15;84.70
83104;BME280;72975;48.134;11.630;2023-11-18T04:05:51;96309.47;;;4.18;84.69
83104;BME280;72975;48.134;11.630;2023-11-18T04:08:18;96311.69;;;4.16;83.61
83104;BME280;72975;48.134;11.630;2023-11-18T04:10:45;96317.03;;;4.16;84.03
83104;BME280;72975;48.134;11.630;2023-11-18T04:13:12;96313.19;;;4.13;84.72
83104;BME280;72975;48.134;11.630;2023-11-18T04:15:39;96304.13;;;4.18;83.91
83104;BME280;72975;48.134;11.630;2023-11-18T04:18:06;96307.91;;;4.17;83.95
83104;BME280;72975;48.134;11.630;2023-11-18T04:20:33;96309.31;;;4.11;83.74
83104;BME280;72975;48.134;11.630;2023-11-18T04:23:00;96310.16;;;4.15;83.87
83104;BME280;72975;48.134;11.630;2023-11-18T04:25:27;96321.44;;;4.08;84.18
83104;BME280;72975;48.134;11.630;2023-11-18T04:27:54;96315.31;;;4.08;83.64
83104;BME280;72975;48.134;11.630;2023-11-18T04:30:21;96309.31;;;4.11;83.58
83104;BME280;72975;48.134;11.630;2023-11-18T04:32:48;96310.75;;;4.08;83.85
83104;BME280;72975;48.134;11.630;2023-11-18T04:35:15;96312.34;;;4.09;83.96
83104;BME280;72975;48.134;11.630;2023-11-18T04:37:44;96307.03;;;4.13;83.79
83104;BME280;72975;48.134;11.630;2023-11-18T04:40:13;96311.47;;;4.05;84.02
83104;BME280;72975;48.134;11.630;2023-11-18T04:42:40;96306.56;;;4.07;83.92
83104;BME280;72975;48.134;11.630;2023-11-18T04:45:08;96313.00;;;4.06;83.58
83104;BME280;72975;48.134;11.630;2023-11-18T04:47:37;96307.00;;;4.09;82.97
83104;BME280;72975;48.134;11.630;2023-11-18T04:50:06;96304.22;;;4.06;83.94
83104;BME280;72975;48.134;11.630;2023-11-18T04:52:35;96305.50;;;4.12;83.02
83104;BME280;72975;48.134;11.630;2023-11-18T04:55:04;96305.41;;;4.08;83.65
83104;BME280;72975;48.134;11.630;2023-11-18T04:57:32;96305.75;;;4.07;83.41
83104;BME280;72975;48.134;11.630;2023-11-18T05:00:02;96306.63;;;4.11;83.07
83104;BME280;72975;48.134;11.630;2023-11-18T05:02:38;96300.25;;;4.15;83.63
83104;BME280;72975;48.134;11.630;2023-11-18T05:05:06;96308.66;;;4.17;83.02
83104;BME280;72975;48.134;11.630;2023-11-18T05:07:33;96307.91;;;4.17;82.58
83104;BME280;72975;48.134;11.630;2023-11-18T05:10:02;96315.16;;;4.16;82.92
83104;BME280;72975;48.134;11.630;2023-11-18T05:12:30;96309.72;;;4.13;83.13
83104;BME280;72975;48.134;11.630;2023-11-18T05:14:56;96316.88;;;4.09;82.86
83104;BME280;72975;48.134;11.630;2023-11-18T05:17:24;96319.81;;;4.04;83.37
83104;BME280;72975;48.134;11.630;2023-11-18T05:19:51;96319.81;;;4.04;83.37
83104;BME280;72975;48.134;11.630;2023-11-18T05:22:18;96319.13;;;4.07;83.52
83104;BME280;72975;48.134;11.630;2023-11-18T05:24:45;96311.47;;;4.05;84.03
83104;BME280;72975;48.134;11.630;2023-11-18T05:27:12;96304.97;;;4.06;83.98
83104;BME280;72975;48.134;11.630;2023-11-18T05:29:39;96297.75;;;4.07;83.93
83104;BME280;72975;48.134;11.630;2023-11-18T05:32:08;96293.69;;;4.13;83.76
83104;BME280;72975;48.134;11.630;2023-11-18T05:34:36;96296.97;;;4.06;84.09
83104;BME280;72975;48.134;11.630;2023-11-18T05:37:03;96282.59;;;4.11;83.29
83104;BME280;72975;48.134;11.630;2023-11-18T05:39:30;96300.25;;;4.15;83.10
83104;BME280;72975;48.134;11.630;2023-11-18T05:41:57;96305.94;;;4.14;83.54
83104;BME280;72975;48.134;11.630;2023-11-18T05:44:25;96297.22;;;4.17;83.51
83104;BME280;72975;48.134;11.630;2023-11-18T05:46:57;96300.75;;;4.21;83.50
83104;BME280;72975;48.134;11.630;2023-11-18T05:49:25;96297.31;;;4.20;83.28
83104;BME280;72975;48.134;11.630;2023-11-18T05:51:52;96298.78;;;4.18;83.51
83104;BME280;72975;48.134;11.630;2023-11-18T05:54:19;96300.31;;;4.19;83.64
83104;BME280;72975;48.134;11.630;2023-11-18T05:56:46;96314.81;;;4.18;83.99
83104;BME280;72975;48.134;11.630;2023-11-18T05:59:14;96305.66;;;4.19;83.33
83104;BME280;72975;48.134;11.630;2023-11-18T06:01:41;96308.66;;;4.17;83.38
83104;BME280;72975;48.134;11.630;2023-11-18T06:04:09;96313.25;;;4.17;83.24
83104;BME280;72975;48.134;11.630;2023-11-18T06:06:36;96323.25;;;4.20;83.21
83104;BME280;72975;48.134;11.630;2023-11-18T06:09:04;96334.53;;;4.13;84.30
83104;BME280;72975;48.134;11.630;2023-11-18T06:11:42;96333.75;;;4.13;84.54
83104;BME280;72975;48.134;11.630;2023-11-18T06:14:11;96344.63;;;4.20;83.79
83104;BME280;72975;48.134;11.630;2023-11-18T06:16:39;96346.53;;;4.19;83.88
83104;BME280;72975;48.134;11.630;2023-11-18T06:19:09;96347.81;;;4.25;83.49
83104;BME280;72975;48.134;11.630;2023-11-18T06:21:36;96352.38;;;4.25;83.84
83104;BME280;72975;48.134;11.630;2023-11-18T06:24:04;96352.03;;;4.26;84.00
83104;BME280;72975;48.134;11.630;2023-11-18T06:26:32;96352.38;;;4.25;84.26
83104;BME280;72975;48.134;11.630;2023-11-18T06:29:03;96351.25;;;4.26;84.40
83104;BME280;72975;48.134;11.630;2023-11-18T06:31:33;96347.88;;;4.29;83.76
83104;BME280;72975;48.134;11.630;2023-11-18T06:34:01;96349.78;;;4.28;83.70
83104;BME280;72975;48.134;11.630;2023-11-18T06:36:30;96347.38;;;4.23;84.23
83104;BME280;72975;48.134;11.630;2023-11-18T06:38:57;96351.59;;;4.24;84.25
83104;BME280;72975;48.134;11.630;2023-11-18T06:41:25;96345.81;;;4.22;84.43
83104;BME280;72975;48.134;11.630;2023-11-18T06:44:00;96348.16;;;4.24;84.42
83104;BME280;72975;48.134;11.630;2023-11-18T06:46:35;96345.13;;;4.25;83.96
83104;BME280;72975;48.134;11.630;2023-11-18T06:49:06;96346.97;;;4.21;83.82
83104;BME280;72975;48.134;11.630;2023-11-18T06:51:35;96339.53;;;4.30;83.46
83104;BME280;72975;48.134;11.630;2023-11-18T06:54:04;96334.78;;;4.24;84.11
83104;BME280;72975;48.134;11.630;2023-11-18T06:56:39;96342.53;;;4.29;84.06
83104;BME280;72975;48.134;11.630;2023-11-18T06:59:06;96342.97;;;4.31;83.58
83104;BME280;72975;48.134;11.630;2023-11-18T07:01:40;96340.75;;;4.33;83.28
83104;BME280;72975;48.134;11.630;2023-11-18T07:04:10;96350.31;;;4.34;83.52
83104;BME280;72975;48.134;11.630;2023-11-18T07:06:37;96354.16;;;4.36;83.77
83104;BME280;72975;48.134;11.630;2023-11-18T07:09:06;96355.03;;;4.40;83.10
83104;BME280;72975;48.134;11.630;2023-11-18T07:11:40;96343.31;;;4.45;83.47
83104;BME280;72975;48.134;11.630;2023-11-18T07:14:11;96347.09;;;4.44;83.06
83104;BME280;72975;48.134;11.630;2023-11-18T07:16:39;96347.50;;;4.46;83.27
83104;BME280;72975;48.134;11.630;2023-11-18T07:19:07;96345.28;;;4.48;82.65
83104;BME280;72975;48.134;11.630;2023-11-18T07:21:37;96351.31;;;4.45;83.39
83104;BME280;72975;48.134;11.630;2023-11-18T07:24:04;96343.72;;;4.47;83.02
83104;BME280;72975;48.134;11.630;2023-11-18T07:26:31;96355.28;;;4.51;83.29
83104;BME280;72975;48.134;11.630;2023-11-18T07:28:58;96354.00;;;4.45;82.71
83104;BME280;72975;48.134;11.630;2023-11-18T07:31:25;96357.84;;;4.47;82.89
83104;BME280;72975;48.134;11.630;2023-11-18T07:33:52;96359.06;;;4.50;82.21
83104;BME280;72975;48.134;11.630;2023-11-18T07:36:19;96354.47;;;4.50;83.16
83104;BME280;72975;48.134;11.630;2023-11-18T07:38:49;96357.44;;;4.45;82.74
83104;BME280;72975;48.134;11.630;2023-11-18T07:41:19;96362.84;;;4.49;83.22
83104;BME280;72975;48.134;11.630;2023-11-18T07:43:59;96364.72;;;4.64;83.16
83104;BME280;72975;48.134;11.630;2023-11-18T07:46:26;96373.09;;;4.62;82.58
83104;BME280;72975;48.134;11.630;2023-11-18T07:48:55;96370.16;;;4.68;81.93
83104;BME280;72975;48.134;11.630;2023-11-18T07:51:23;96371.09;;;4.75;82.19
83104;BME280;72975;48.134;11.630;2023-11-18T07:53:51;96373.75;;;4.75;81.25
83104;BME280;72975;48.134;11.630;2023-11-18T07:56:19;96375.13;;;4.85;81.55
83104;BME280;72975;48.134;11.630;2023-11-18T07:58:49;96369.69;;;4.81;81.89
83104;BME280;72975;48.134;11.630;2023-11-18T08:01:17;96371.47;;;4.93;81.47
83104;BME280;72975;48.134;11.630;2023-11-18T08:03:45;96367.97;;;4.73;81.41
83104;BME280;72975;48.134;11.630;2023-11-18T08:06:12;96357.59;;;4.87;80.62
83104;BME280;72975;48.134;11.630;2023-11-18T08:08:39;96367.03;;;5.00;80.82
83104;BME280;72975;48.134;11.630;2023-11-18T08:11:11;96364.94;;;5.09;79.70
83104;BME280;72975;48.134;11.630;2023-11-18T08:13:41;96364.22;;;5.12;79.68
83104;BME280;72975;48.134;11.630;2023-11-18T08:16:08;96373.94;;;5.20;79.12
83104;BME280;72975;48.134;11.630;2023-11-18T08:18:36;96371.44;;;5.27;79.31
83104;BME280;72975;48.134;11.630;2023-11-18T08:21:03;96367.69;;;5.32;78.75
83104;BME280;72975;48.134;11.630;2023-11-18T08:23:33;96373.13;;;5.35;78.56
83104;BME280;72975;48.134;11.630;2023-11-18T08:26:01;96370.72;;;5.30;78.06
83104;BME280;72975;48.134;11.630;2023-11-18T08:28:28;96370.72;;;5.30;77.91
83104;BME280;72975;48.134;11.630;2023-11-18T08:30:58;96369.19;;;5.29;77.91
83104;BME280;72975;48.134;11.630;2023-11-18T08:33:25;96374.88;;;5.28;78.02
83104;BME280;72975;48.134;11.630;2023-11-18T08:35:52;96382.25;;;5.34;78.22
83104;BME280;72975;48.134;11.630;2023-11-18T08:38:19;96387.47;;;5.27;78.26
83104;BME280;72975;48.134;11.630;2023-11-18T08:40:46;96394.38;;;5.28;78.69
83104;BME280;72975;48.134;11.630;2023-11-18T08:43:15;96392.47;;;5.29;77.93
83104;BME280;72975;48.134;11.630;2023-11-18T08:45:44;96399.03;;;5.31;78.43
83104;BME280;72975;48.134;11.630;2023-11-18T08:48:12;96387.84;;;5.26;78.27
83104;BME280;72975;48.134;11.630;2023-11-18T08:50:39;96379.94;;;5.33;77.54
83104;BME280;72975;48.134;11.630;2023-11-18T08:53:07;96374.88;;;5.28;77.71
83104;BME280;72975;48.134;11.630;2023-11-18T08:55:38;96372.56;;;5.26;77.78
83104;BME280;72975;48.134;11.630;2023-11-18T08:58:31;96367.19;;;5.45;77.51
83104;BME280;72975;48.134;11.630;2023-11-18T09:01:01;96380.28;;;5.50;77.17
83104;BME280;72975;48.134;11.630;2023-11-18T09:03:54;96383.53;;;5.59;77.32
83104;BME280;72975;48.134;11.630;2023-11-18T09:06:21;96384.44;;;5.67;77.36
83104;BME280;72975;48.134;11.630;2023-11-18T09:08:53;96379.53;;;5.72;76.20
83104;BME280;72975;48.134;11.630;2023-11-18T09:11:24;96368.47;;;5.74;76.06
83104;BME280;72975;48.134;11.630;2023-11-18T09:13:55;96359.97;;;5.68;76.23
83104;BME280;72975;48.134;11.630;2023-11-18T09:16:27;96361.66;;;5.76;75.51
83104;BME280;72975;48.134;11.630;2023-11-18T09:18:58;96360.06;;;5.75;74.81
83104;BME280;72975;48.134;11.630;2023-11-18T09:21:30;96367.56;;;5.85;74.83
83104;BME280;72975;48.134;11.630;2023-11-18T09:24:02;96360.41;;;5.93;74.34
83104;BME280;72975;48.134;11.630;2023-11-18T09:26:34;96377.47;;;6.04;74.63
83104;BME280;72975;48.134;11.630;2023-11-18T09:29:02;96373.34;;;6.33;73.24
83104;BME280;72975;48.134;11.630;2023-11-18T09:31:29;96370.97;;;6.28;73.01
83104;BME280;72975;48.134;11.630;2023-11-18T09:33:58;96367.06;;;6.74;71.06
83104;BME280;72975;48.134;11.630;2023-11-18T09:36:25;96374.94;;;6.86;70.73
83104;BME280;72975;48.134;11.630;2023-11-18T09:38:55;96377.38;;;6.98;69.25
83104;BME280;72975;48.134;11.630;2023-11-18T09:41:23;96369.28;;;7.24;68.54
83104;BME280;72975;48.134;11.630;2023-11-18T09:43:53;96371.41;;;7.74;67.38
83104;BME280;72975;48.134;11.630;2023-11-18T09:46:26;96376.94;;;7.55;67.06
83104;BME280;72975;48.134;11.630;2023-11-18T09:49:29;96365.03;;;7.56;66.41
83104;BME280;72975;48.134;11.630;2023-11-18T09:52:06;96370.81;;;7.91;65.90
83104;BME280;72975;48.134;11.630;2023-11-18T09:54:42;96360.28;;;8.19;63.94
83104;BME280;72975;48.134;11.630;2023-11-18T09:57:27;96352.41;;;8.94;61.84
83104;BME280;72975;48.134;11.630;2023-11-18T10:00:04;96364.13;;;9.23;61.09
83104;BME280;72975;48.134;11.630;2023-11-18T10:02:48;96366.03;;;9.30;60.75
83104;BME280;72975;48.134;11.630;2023-11-18T10:05:20;96362.56;;;9.26;61.12
83104;BME280;72975;48.134;11.630;2023-11-18T10:07:49;96360.00;;;9.57;59.42
83104;BME280;72975;48.134;11.630;2023-11-18T10:10:16;96364.34;;;9.97;57.46
83104;BME280;72975;48.134;11.630;2023-11-18T10:12:48;96362.81;;;9.92;57.43
83104;BME280;72975;48.134;11.630;2023-11-18T10:15:31;96358.78;;;9.44;58.76
83104;BME280;72975;48.134;11.630;2023-11-18T10:18:04;96359.28;;;8.88;60.86
83104;BME280;72975;48.134;11.630;2023-11-18T10:30:59;96334.63;;;8.79;60.04
83104;BME280;72975;48.134;11.630;2023-11-18T10:34:16;96345.75;;;9.50;58.21
83104;BME280;72975;48.134;11.630;2023-11-18T10:37:08;96327.78;;;10.10;55.61
83104;BME280;72975;48.134;11.630;2023-11-18T10:39:53;96325.84;;;10.49;54.00
83104;BME280;72975;48.134;11.630;2023-11-18T10:43:06;96316.53;;;11.85;51.84
83104;BME280;72975;48.134;11.630;2023-11-18T10:45:38;96312.94;;;12.02;48.95
83104;BME280;72975;48.134;11.630;2023-11-18T10:48:11;96317.25;;;11.89;49.03
83104;BME280;72975;48.134;11.630;2023-11-18T10:50:47;96324.34;;;12.28;46.45
83104;BME280;72975;48.134;11.630;2023-11-18T10:53:14;96329.88;;;12.13;44.76
83104;BME280;72975;48.134;11.630;2023-11-18T10:55:43;96340.41;;;10.97;48.07
83104;BME280;72975;48.134;11.630;2023-11-18T10:58:10;96342.44;;;10.61;49.34
83104;BME280;72975;48.134;11.630;2023-11-18T11:00:53;96335.09;;;10.34;50.14
83104;BME280;72975;48.134;11.630;2023-11-18T11:03:22;96346.03;;;9.27;51.84
83104;BME280;72975;48.134;11.630;2023-11-18T11:05:52;96345.06;;;8.88;53.82
83104;BME280;72975;48.134;11.630;2023-11-18T11:08:21;96344.78;;;8.46;55.42
83104;BME280;72975;48.134;11.630;2023-11-18T11:11:03;96340.22;;;9.21;53.60
83104;BME280;72975;48.134;11.630;2023-11-18T11:13:35;96341.78;;;9.30;54.02
83104;BME280;72975;48.134;11.630;2023-11-18T11:16:06;96332.78;;;8.94;55.40
83104;BME280;72975;48.134;11.630;2023-11-18T11:18:39;96340.19;;;9.14;54.72
83104;BME280;72975;48.134;11.630;2023-11-18T11:21:19;96330.63;;;9.24;54.94
83104;BME280;72975;48.134;11.630;2023-11-18T11:24:04;96331.53;;;8.77;55.50
83104;BME280;72975;48.134;11.630;2023-11-18T11:30:24;96346.19;;;8.87;55.60
83104;BME280;72975;48.134;11.630;2023-11-18T11:33:22;96344.84;;;8.09;55.15
83104;BME280;72975;48.134;11.630;2023-11-18T11:35:56;96347.63;;;7.76;56.86
83104;BME280;72975;48.134;11.630;2023-11-18T11:38:27;96351.34;;;7.64;57.95
83104;BME280;72975;48.134;11.630;2023-11-18T11:40:55;96359.63;;;7.52;57.70
83104;BME280;72975;48.134;11.630;2023-11-18T11:43:27;96352.44;;;7.27;58.42
83104;BME280;72975;48.134;11.630;2023-11-18T11:45:55;96344.09;;;7.35;58.22
83104;BME280;72975;48.134;11.630;2023-11-18T11:48:24;96342.81;;;7.59;57.70
83104;BME280;72975;48.134;11.630;2023-11-18T11:51:05;96338.06;;;7.45;58.46
83104;BME280;72975;48.134;11.630;2023-11-18T11:53:56;96318.38;;;7.34;58.93
83104;BME280;72975;48.134;11.630;2023-11-18T11:56:40;96321.75;;;7.28;58.50
83104;BME280;72975;48.134;11.630;2023-11-18T11:59:08;96319.03;;;7.24;59.27
83104;BME280;72975;48.134;11.630;2023-11-18T12:01:39;96315.56;;;7.57;58.82
83104;BME280;72975;48.134;11.630;2023-11-18T12:04:16;96308.72;;;7.63;57.13
83104;BME280;72975;48.134;11.630;2023-11-18T12:06:58;96303.59;;;7.91;56.28
83104;BME280;72975;48.134;11.630;2023-11-18T12:09:46;96303.25;;;7.96;55.47
83104;BME280;72975;48.134;11.630;2023-11-18T12:12:25;96302.34;;;8.83;52.87
83104;BME280;72975;48.134;11.630;2023-11-18T12:20:41;96302.34;;;10.32;49.92
83104;BME280;72975;48.134;11.630;2023-11-18T12:23:15;96309.47;;;9.26;52.01
83104;BME280;72975;48.134;11.630;2023-11-18T12:25:44;96304.31;;;8.96;53.29
83104;BME280;72975;48.134;11.630;2023-11-18T12:28:30;96302.38;;;8.93;54.41
83104;BME280;72975;48.134;11.630;2023-11-18T12:31:04;96296.09;;;8.65;54.56
83104;BME280;72975;48.134;11.630;2023-11-18T12:39:51;96278.50;;;8.81;54.02
83104;BME280;72975;48.134;11.630;2023-11-18T12:43:01;96275.63;;;9.43;53.06
83104;BME280;72975;48.134;11.630;2023-11-18T12:48:57;96257.94;;;9.63;52.71
83104;BME280;72975;48.134;11.630;2023-11-18T12:51:33;96256.44;;;10.49;50.79
83104;BME280;72975;48.134;11.630;2023-11-18T12:54:03;96247.13;;;10.61;49.11
83104;BME280;72975;48.134;11.630;2023-11-18T12:56:34;96253.34;;;10.44;49.56
83104;BME280;72975;48.134;11.630;2023-11-18T12:59:01;96245.28;;;10.09;50.92
83104;BME280;72975;48.134;11.630;2023-11-18T13:01:35;96240.91;;;10.78;49.47
83104;BME280;72975;48.134;11.630;2023-11-18T13:04:08;96246.69;;;10.87;48.95
83104;BME280;72975;48.134;11.630;2023-11-18T13:06:39;96251.56;;;11.20;48.47
83104;BME280;72975;48.134;11.630;2023-11-18T13:09:15;96239.94;;;11.92;46.88
83104;BME280;72975;48.134;11.630;2023-11-18T13:11:56;96246.75;;;11.52;47.63
83104;BME280;72975;48.134;11.630;2023-11-18T13:14:27;96235.56;;;10.67;48.51
83104;BME280;72975;48.134;11.630;2023-11-18T13:16:55;96234.75;;;10.74;49.65
83104;BME280;72975;48.134;11.630;2023-11-18T13:19:29;96228.44;;;11.12;47.82
83104;BME280;72975;48.134;11.630;2023-11-18T13:22:07;96231.31;;;10.70;48.71
83104;BME280;72975;48.134;11.630;2023-11-18T13:24:41;96225.81;;;10.98;48.53
83104;BME280;72975;48.134;11.630;2023-11-18T13:27:14;96222.91;;;10.36;49.96
83104;BME280;72975;48.134;11.630;2023-11-18T13:29:47;96223.31;;;9.68;52.16
83104;BME280;72975;48.134;11.630;2023-11-18T13:32:20;96218.69;;;9.62;52.30
83104;BME280;72975;48.134;11.630;2023-11-18T13:34:52;96215.25;;;9.75;51.95
83104;BME280;72975;48.134;11.630;2023-11-18T13:37:19;96214.06;;;9.80;51.68
83104;BME280;72975;48.134;11.630;2023-11-18T13:39:56;96221.38;;;9.76;52.00
83104;BME280;72975;48.134;11.630;2023-11-18T13:42:27;96211.75;;;9.89;51.74
83104;BME280;72975;48.134;11.630;2023-11-18T13:45:03;96203.28;;;9.87;52.12
83104;BME280;72975;48.134;11.630;2023-11-18T13:47:35;96212.88;;;9.39;53.16